Hampton, Virginia
Current Conditions -  °F | °C
As of 11:58 AM on Sunday 23 Nov 2014 (Local Time) from KLFI Reporting Station
Broken Clouds Broken Clouds  
Wind Chill: 54°   Ceiling: 16000
Heat Index: 54°   Visibility: 10mi
Dew Point: 43°   Wind: 3mph
Humidity: 67%   Direction: 160°SSE
Pressure: 30.22"   Gusts: NA
Location:  37.03°N, 76.34°W
Report Text: KLFI 231658Z AUTO 16003KT 10SM BKN160 BKN190 12/06 A3022 RMK AO2 SLP240 T01220062 $
Loading
Personal Weather Stations






























Interactive Weather Map New forecast layout! Learn more

10-Day Weather Forecast

Advertisements
Track Severe Weather on mobile